Terminal Aerodrome Forecast
Issued by NWS Paducah, KY

Home | Current Version | Previous Version | Graphics & Text | Print | Product List | Glossary On
Versions: 1 2 3 4 5 6 7 8 9 10 11 12 13
000
FTUS43 KPAH 261120
TAFEVV
TAF
KEVV 261120Z 2612/2712 22005KT P6SM SCT030 BKN150
     FM261700 23005KT P6SM VCTS SCT025CB SCT110
     FM262200 VRB02KT P6SM FEW030 SCT200=

USA.gov is the U.S. government's official web portal to all federal, state and local government web resources and services.